sensor_id;sensor_type;location;lat;lon;timestamp;P1;durP1;ratioP1;P2;durP2;ratioP2
27558;SDS011;15002;52.028;5.670;2023-03-14T00:01:22;6.18;;;2.17;;
27558;SDS011;15002;52.028;5.670;2023-03-14T00:03:49;13.05;;;2.20;;
27558;SDS011;15002;52.028;5.670;2023-03-14T00:06:15;6.85;;;2.50;;
27558;SDS011;15002;52.028;5.670;2023-03-14T00:08:42;10.70;;;2.85;;
27558;SDS011;15002;52.028;5.670;2023-03-14T00:11:09;8.05;;;2.60;;
27558;SDS011;15002;52.028;5.670;2023-03-14T00:13:37;12.45;;;2.92;;
27558;SDS011;15002;52.028;5.670;2023-03-14T00:16:07;9.88;;;2.47;;
27558;SDS011;15002;52.028;5.670;2023-03-14T00:18:35;11.23;;;2.53;;
27558;SDS011;15002;52.028;5.670;2023-03-14T00:21:02;8.30;;;2.42;;
27558;SDS011;15002;52.028;5.670;2023-03-14T00:23:29;7.90;;;2.88;;
27558;SDS011;15002;52.028;5.670;2023-03-14T00:26:02;9.45;;;2.28;;
27558;SDS011;15002;52.028;5.670;2023-03-14T00:28:32;8.32;;;2.67;;
27558;SDS011;15002;52.028;5.670;2023-03-14T00:30:58;7.53;;;2.00;;
27558;SDS011;15002;52.028;5.670;2023-03-14T00:33:23;5.93;;;1.95;;
27558;SDS011;15002;52.028;5.670;2023-03-14T00:35:59;5.95;;;2.33;;
27558;SDS011;15002;52.028;5.670;2023-03-14T00:38:30;9.20;;;2.73;;
27558;SDS011;15002;52.028;5.670;2023-03-14T00:40:56;8.90;;;2.35;;
27558;SDS011;15002;52.028;5.670;2023-03-14T00:43:22;12.55;;;2.78;;
27558;SDS011;15002;52.028;5.670;2023-03-14T00:45:48;6.00;;;2.60;;
27558;SDS011;15002;52.028;5.670;2023-03-14T00:48:15;8.70;;;2.53;;
27558;SDS011;15002;52.028;5.670;2023-03-14T00:50:41;10.18;;;2.70;;
27558;SDS011;15002;52.028;5.670;2023-03-14T00:53:07;9.15;;;3.03;;
27558;SDS011;15002;52.028;5.670;2023-03-14T00:55:35;9.07;;;2.38;;
27558;SDS011;15002;52.028;5.670;2023-03-14T00:58:02;4.80;;;2.15;;
27558;SDS011;15002;52.028;5.670;2023-03-14T01:00:28;6.90;;;1.95;;
27558;SDS011;15002;52.028;5.670;2023-03-14T01:02:53;6.80;;;1.45;;
27558;SDS011;15002;52.028;5.670;2023-03-14T01:05:19;5.90;;;1.40;;
27558;SDS011;15002;52.028;5.670;2023-03-14T01:07:46;8.38;;;1.75;;
27558;SDS011;15002;52.028;5.670;2023-03-14T01:10:12;4.07;;;1.17;;
27558;SDS011;15002;52.028;5.670;2023-03-14T01:12:38;9.93;;;1.60;;
27558;SDS011;15002;52.028;5.670;2023-03-14T01:15:03;9.55;;;1.27;;
27558;SDS011;15002;52.028;5.670;2023-03-14T01:17:29;8.75;;;1.00;;
27558;SDS011;15002;52.028;5.670;2023-03-14T01:19:55;7.90;;;1.50;;
27558;SDS011;15002;52.028;5.670;2023-03-14T01:22:21;6.53;;;1.20;;
27558;SDS011;15002;52.028;5.670;2023-03-14T01:24:46;9.60;;;1.20;;
27558;SDS011;15002;52.028;5.670;2023-03-14T01:27:12;6.10;;;1.13;;
27558;SDS011;15002;52.028;5.670;2023-03-14T01:29:38;6.82;;;2.03;;
27558;SDS011;15002;52.028;5.670;2023-03-14T01:32:03;5.97;;;2.13;;
27558;SDS011;15002;52.028;5.670;2023-03-14T01:34:29;7.10;;;1.23;;
27558;SDS011;15002;52.028;5.670;2023-03-14T01:36:55;8.90;;;1.67;;
27558;SDS011;15002;52.028;5.670;2023-03-14T01:39:20;11.68;;;1.35;;
27558;SDS011;15002;52.028;5.670;2023-03-14T01:41:46;14.88;;;1.55;;
27558;SDS011;15002;52.028;5.670;2023-03-14T01:44:12;6.75;;;1.30;;
27558;SDS011;15002;52.028;5.670;2023-03-14T01:46:38;7.35;;;1.40;;
27558;SDS011;15002;52.028;5.670;2023-03-14T01:54:16;11.90;;;1.75;;
27558;SDS011;15002;52.028;5.670;2023-03-14T01:56:44;6.13;;;1.60;;
27558;SDS011;15002;52.028;5.670;2023-03-14T01:59:15;5.63;;;1.10;;
27558;SDS011;15002;52.028;5.670;2023-03-14T02:01:41;8.90;;;1.75;;
27558;SDS011;15002;52.028;5.670;2023-03-14T02:04:10;6.85;;;1.75;;
27558;SDS011;15002;52.028;5.670;2023-03-14T02:11:55;7.00;;;1.80;;
27558;SDS011;15002;52.028;5.670;2023-03-14T02:14:24;5.72;;;1.33;;
27558;SDS011;15002;52.028;5.670;2023-03-14T02:16:53;5.47;;;1.42;;
27558;SDS011;15002;52.028;5.670;2023-03-14T02:19:20;7.32;;;1.95;;
27558;SDS011;15002;52.028;5.670;2023-03-14T02:24:36;9.85;;;1.90;;
27558;SDS011;15002;52.028;5.670;2023-03-14T02:27:15;4.68;;;1.98;;
27558;SDS011;15002;52.028;5.670;2023-03-14T02:29:49;3.97;;;1.75;;
27558;SDS011;15002;52.028;5.670;2023-03-14T02:32:18;8.70;;;2.42;;
27558;SDS011;15002;52.028;5.670;2023-03-14T02:34:47;7.32;;;2.35;;
27558;SDS011;15002;52.028;5.670;2023-03-14T02:37:17;6.07;;;2.85;;
27558;SDS011;15002;52.028;5.670;2023-03-14T02:39:45;9.02;;;2.80;;
27558;SDS011;15002;52.028;5.670;2023-03-14T02:42:14;13.23;;;3.17;;
27558;SDS011;15002;52.028;5.670;2023-03-14T02:47:34;7.65;;;2.45;;
27558;SDS011;15002;52.028;5.670;2023-03-14T02:50:08;7.72;;;2.20;;
27558;SDS011;15002;52.028;5.670;2023-03-14T02:52:37;7.68;;;2.20;;
27558;SDS011;15002;52.028;5.670;2023-03-14T02:55:04;8.73;;;2.53;;
27558;SDS011;15002;52.028;5.670;2023-03-14T02:57:30;9.00;;;2.30;;
27558;SDS011;15002;52.028;5.670;2023-03-14T02:59:59;6.30;;;2.10;;
27558;SDS011;15002;52.028;5.670;2023-03-14T03:02:25;7.65;;;2.30;;
27558;SDS011;15002;52.028;5.670;2023-03-14T03:04:52;9.35;;;2.38;;
27558;SDS011;15002;52.028;5.670;2023-03-14T03:07:17;11.93;;;3.28;;
27558;SDS011;15002;52.028;5.670;2023-03-14T03:09:44;9.65;;;2.38;;
27558;SDS011;15002;52.028;5.670;2023-03-14T03:12:10;9.82;;;2.30;;
27558;SDS011;15002;52.028;5.670;2023-03-14T03:14:35;6.25;;;2.15;;
27558;SDS011;15002;52.028;5.670;2023-03-14T03:17:02;10.35;;;2.35;;
27558;SDS011;15002;52.028;5.670;2023-03-14T03:19:30;8.85;;;2.40;;
27558;SDS011;15002;52.028;5.670;2023-03-14T03:21:56;15.45;;;3.85;;
27558;SDS011;15002;52.028;5.670;2023-03-14T03:24:22;14.18;;;3.10;;
27558;SDS011;15002;52.028;5.670;2023-03-14T03:26:49;8.27;;;2.63;;
27558;SDS011;15002;52.028;5.670;2023-03-14T03:29:14;8.18;;;3.03;;
27558;SDS011;15002;52.028;5.670;2023-03-14T03:31:40;8.32;;;3.22;;
27558;SDS011;15002;52.028;5.670;2023-03-14T03:34:06;11.02;;;3.47;;
27558;SDS011;15002;52.028;5.670;2023-03-14T03:36:31;11.45;;;3.10;;
27558;SDS011;15002;52.028;5.670;2023-03-14T03:38:58;12.23;;;3.25;;
27558;SDS011;15002;52.028;5.670;2023-03-14T03:41:23;6.10;;;1.88;;
27558;SDS011;15002;52.028;5.670;2023-03-14T03:43:49;8.82;;;2.25;;
27558;SDS011;15002;52.028;5.670;2023-03-14T03:46:15;4.13;;;1.83;;
27558;SDS011;15002;52.028;5.670;2023-03-14T03:48:40;9.27;;;1.65;;
27558;SDS011;15002;52.028;5.670;2023-03-14T03:51:06;12.00;;;2.10;;
27558;SDS011;15002;52.028;5.670;2023-03-14T03:53:32;9.73;;;2.03;;
27558;SDS011;15002;52.028;5.670;2023-03-14T03:55:58;7.55;;;1.80;;
27558;SDS011;15002;52.028;5.670;2023-03-14T03:58:23;10.98;;;2.80;;
27558;SDS011;15002;52.028;5.670;2023-03-14T04:00:49;8.23;;;2.22;;
27558;SDS011;15002;52.028;5.670;2023-03-14T04:03:14;8.02;;;2.03;;
27558;SDS011;15002;52.028;5.670;2023-03-14T04:05:40;11.98;;;2.72;;
27558;SDS011;15002;52.028;5.670;2023-03-14T04:08:06;10.38;;;3.67;;
27558;SDS011;15002;52.028;5.670;2023-03-14T04:10:34;12.70;;;4.05;;
27558;SDS011;15002;52.028;5.670;2023-03-14T04:13:00;8.55;;;2.63;;
27558;SDS011;15002;52.028;5.670;2023-03-14T04:15:26;12.13;;;3.67;;
27558;SDS011;15002;52.028;5.670;2023-03-14T04:17:55;10.10;;;2.45;;
27558;SDS011;15002;52.028;5.670;2023-03-14T04:20:21;8.43;;;2.60;;
27558;SDS011;15002;52.028;5.670;2023-03-14T04:22:47;9.77;;;2.15;;
27558;SDS011;15002;52.028;5.670;2023-03-14T04:25:13;6.70;;;2.00;;
27558;SDS011;15002;52.028;5.670;2023-03-14T04:27:38;8.00;;;2.15;;
27558;SDS011;15002;52.028;5.670;2023-03-14T04:30:04;14.30;;;2.17;;
27558;SDS011;15002;52.028;5.670;2023-03-14T04:32:30;9.43;;;2.20;;
27558;SDS011;15002;52.028;5.670;2023-03-14T04:34:55;8.55;;;2.08;;
27558;SDS011;15002;52.028;5.670;2023-03-14T04:37:21;11.95;;;2.00;;
27558;SDS011;15002;52.028;5.670;2023-03-14T04:39:47;7.82;;;2.33;;
27558;SDS011;15002;52.028;5.670;2023-03-14T04:42:12;9.30;;;2.17;;
27558;SDS011;15002;52.028;5.670;2023-03-14T04:44:38;10.18;;;1.75;;
27558;SDS011;15002;52.028;5.670;2023-03-14T04:47:03;10.43;;;2.60;;
27558;SDS011;15002;52.028;5.670;2023-03-14T04:49:29;6.30;;;1.42;;
27558;SDS011;15002;52.028;5.670;2023-03-14T04:51:55;9.50;;;2.35;;
27558;SDS011;15002;52.028;5.670;2023-03-14T04:54:20;6.55;;;1.67;;
27558;SDS011;15002;52.028;5.670;2023-03-14T04:56:46;8.13;;;1.48;;
27558;SDS011;15002;52.028;5.670;2023-03-14T04:59:11;5.90;;;1.38;;
27558;SDS011;15002;52.028;5.670;2023-03-14T05:01:37;10.40;;;1.88;;
27558;SDS011;15002;52.028;5.670;2023-03-14T05:04:03;7.15;;;2.08;;
27558;SDS011;15002;52.028;5.670;2023-03-14T05:06:28;7.78;;;1.27;;
27558;SDS011;15002;52.028;5.670;2023-03-14T05:08:54;6.82;;;1.60;;
27558;SDS011;15002;52.028;5.670;2023-03-14T05:11:20;8.27;;;1.35;;
27558;SDS011;15002;52.028;5.670;2023-03-14T05:13:45;4.97;;;1.48;;
27558;SDS011;15002;52.028;5.670;2023-03-14T05:16:11;5.78;;;1.55;;
27558;SDS011;15002;52.028;5.670;2023-03-14T05:18:37;7.03;;;1.33;;
27558;SDS011;15002;52.028;5.670;2023-03-14T05:21:03;8.60;;;1.30;;
27558;SDS011;15002;52.028;5.670;2023-03-14T05:23:29;10.95;;;2.03;;
27558;SDS011;15002;52.028;5.670;2023-03-14T05:25:55;5.78;;;1.30;;
27558;SDS011;15002;52.028;5.670;2023-03-14T05:28:21;8.00;;;1.52;;
27558;SDS011;15002;52.028;5.670;2023-03-14T05:30:47;8.32;;;1.60;;
27558;SDS011;15002;52.028;5.670;2023-03-14T05:33:12;6.13;;;1.73;;
27558;SDS011;15002;52.028;5.670;2023-03-14T05:35:38;5.80;;;2.53;;
27558;SDS011;15002;52.028;5.670;2023-03-14T05:38:04;5.65;;;1.67;;
27558;SDS011;15002;52.028;5.670;2023-03-14T05:40:29;5.85;;;1.80;;
27558;SDS011;15002;52.028;5.670;2023-03-14T05:42:55;5.10;;;1.50;;
27558;SDS011;15002;52.028;5.670;2023-03-14T05:45:20;6.22;;;2.03;;
27558;SDS011;15002;52.028;5.670;2023-03-14T05:47:46;5.22;;;1.90;;
27558;SDS011;15002;52.028;5.670;2023-03-14T05:50:12;5.60;;;1.80;;
27558;SDS011;15002;52.028;5.670;2023-03-14T05:52:37;8.45;;;1.80;;
27558;SDS011;15002;52.028;5.670;2023-03-14T05:55:03;5.13;;;1.67;;
27558;SDS011;15002;52.028;5.670;2023-03-14T05:57:29;6.97;;;2.70;;
27558;SDS011;15002;52.028;5.670;2023-03-14T05:59:55;5.53;;;1.80;;
27558;SDS011;15002;52.028;5.670;2023-03-14T06:02:20;6.85;;;1.70;;
27558;SDS011;15002;52.028;5.670;2023-03-14T06:04:46;6.43;;;2.50;;
27558;SDS011;15002;52.028;5.670;2023-03-14T06:07:12;5.05;;;2.28;;
27558;SDS011;15002;52.028;5.670;2023-03-14T06:09:38;5.82;;;2.38;;
27558;SDS011;15002;52.028;5.670;2023-03-14T06:12:04;9.65;;;4.47;;
27558;SDS011;15002;52.028;5.670;2023-03-14T06:14:31;8.77;;;3.20;;
27558;SDS011;15002;52.028;5.670;2023-03-14T06:16:56;10.10;;;3.60;;
27558;SDS011;15002;52.028;5.670;2023-03-14T06:19:24;8.07;;;2.53;;
27558;SDS011;15002;52.028;5.670;2023-03-14T06:21:51;7.20;;;2.72;;
27558;SDS011;15002;52.028;5.670;2023-03-14T06:24:17;5.07;;;2.70;;
27558;SDS011;15002;52.028;5.670;2023-03-14T06:26:42;6.70;;;2.53;;
27558;SDS011;15002;52.028;5.670;2023-03-14T06:29:08;6.72;;;2.88;;
27558;SDS011;15002;52.028;5.670;2023-03-14T06:31:34;5.45;;;2.65;;
27558;SDS011;15002;52.028;5.670;2023-03-14T06:34:00;9.02;;;4.28;;
27558;SDS011;15002;52.028;5.670;2023-03-14T06:36:25;8.63;;;3.90;;
27558;SDS011;15002;52.028;5.670;2023-03-14T06:38:51;6.38;;;3.50;;
27558;SDS011;15002;52.028;5.670;2023-03-14T06:41:17;7.22;;;3.75;;
27558;SDS011;15002;52.028;5.670;2023-03-14T06:43:43;9.75;;;4.00;;
27558;SDS011;15002;52.028;5.670;2023-03-14T06:46:08;7.55;;;4.35;;
27558;SDS011;15002;52.028;5.670;2023-03-14T06:48:34;8.63;;;3.83;;
27558;SDS011;15002;52.028;5.670;2023-03-14T06:51:00;8.48;;;3.90;;
27558;SDS011;15002;52.028;5.670;2023-03-14T06:53:25;7.80;;;4.40;;
27558;SDS011;15002;52.028;5.670;2023-03-14T06:55:51;11.55;;;4.82;;
27558;SDS011;15002;52.028;5.670;2023-03-14T06:58:17;11.07;;;5.40;;
27558;SDS011;15002;52.028;5.670;2023-03-14T07:00:42;9.40;;;4.35;;
27558;SDS011;15002;52.028;5.670;2023-03-14T07:03:09;8.40;;;4.40;;
27558;SDS011;15002;52.028;5.670;2023-03-14T07:05:35;13.43;;;4.85;;
27558;SDS011;15002;52.028;5.670;2023-03-14T07:08:01;9.85;;;5.00;;
27558;SDS011;15002;52.028;5.670;2023-03-14T07:10:26;6.38;;;4.47;;
27558;SDS011;15002;52.028;5.670;2023-03-14T07:12:52;7.95;;;3.97;;
27558;SDS011;15002;52.028;5.670;2023-03-14T07:15:18;5.47;;;3.33;;
27558;SDS011;15002;52.028;5.670;2023-03-14T07:17:45;4.65;;;2.20;;
27558;SDS011;15002;52.028;5.670;2023-03-14T07:20:13;2.33;;;1.50;;
27558;SDS011;15002;52.028;5.670;2023-03-14T07:22:38;2.10;;;1.20;;
27558;SDS011;15002;52.028;5.670;2023-03-14T07:25:04;1.92;;;1.00;;
27558;SDS011;15002;52.028;5.670;2023-03-14T07:27:30;2.10;;;1.17;;
27558;SDS011;15002;52.028;5.670;2023-03-14T07:29:56;2.33;;;0.90;;
27558;SDS011;15002;52.028;5.670;2023-03-14T07:32:22;2.80;;;0.93;;
27558;SDS011;15002;52.028;5.670;2023-03-14T07:34:48;1.85;;;0.80;;
27558;SDS011;15002;52.028;5.670;2023-03-14T07:37:13;2.25;;;1.10;;
27558;SDS011;15002;52.028;5.670;2023-03-14T07:39:39;2.95;;;1.02;;
27558;SDS011;15002;52.028;5.670;2023-03-14T07:42:04;1.67;;;1.13;;
27558;SDS011;15002;52.028;5.670;2023-03-14T07:44:30;3.38;;;0.82;;
27558;SDS011;15002;52.028;5.670;2023-03-14T07:46:56;4.05;;;1.10;;
27558;SDS011;15002;52.028;5.670;2023-03-14T07:49:22;1.70;;;1.10;;
27558;SDS011;15002;52.028;5.670;2023-03-14T07:51:48;2.40;;;0.90;;
27558;SDS011;15002;52.028;5.670;2023-03-14T07:54:13;2.92;;;1.20;;
27558;SDS011;15002;52.028;5.670;2023-03-14T07:56:39;1.40;;;0.90;;
27558;SDS011;15002;52.028;5.670;2023-03-14T07:59:05;5.43;;;1.10;;
27558;SDS011;15002;52.028;5.670;2023-03-14T08:01:32;2.75;;;1.10;;
27558;SDS011;15002;52.028;5.670;2023-03-14T08:03:57;3.40;;;1.20;;
27558;SDS011;15002;52.028;5.670;2023-03-14T08:06:23;1.98;;;1.23;;
27558;SDS011;15002;52.028;5.670;2023-03-14T08:08:49;1.95;;;1.30;;
27558;SDS011;15002;52.028;5.670;2023-03-14T08:11:15;2.38;;;0.95;;
27558;SDS011;15002;52.028;5.670;2023-03-14T08:13:40;1.45;;;1.25;;
27558;SDS011;15002;52.028;5.670;2023-03-14T08:16:06;3.92;;;0.93;;
27558;SDS011;15002;52.028;5.670;2023-03-14T08:18:32;2.03;;;1.13;;
27558;SDS011;15002;52.028;5.670;2023-03-14T08:20:58;1.92;;;0.95;;
27558;SDS011;15002;52.028;5.670;2023-03-14T08:23:24;2.58;;;1.00;;
27558;SDS011;15002;52.028;5.670;2023-03-14T08:25:50;3.08;;;0.82;;
27558;SDS011;15002;52.028;5.670;2023-03-14T08:28:16;3.38;;;0.90;;
27558;SDS011;15002;52.028;5.670;2023-03-14T08:30:42;1.45;;;0.70;;
27558;SDS011;15002;52.028;5.670;2023-03-14T08:33:08;5.60;;;1.15;;
27558;SDS011;15002;52.028;5.670;2023-03-14T08:35:33;2.53;;;0.60;;
27558;SDS011;15002;52.028;5.670;2023-03-14T08:37:59;6.00;;;0.63;;
27558;SDS011;15002;52.028;5.670;2023-03-14T08:40:25;3.22;;;0.80;;
27558;SDS011;15002;52.028;5.670;2023-03-14T08:42:50;4.72;;;0.60;;
27558;SDS011;15002;52.028;5.670;2023-03-14T08:45:16;4.82;;;1.05;;
27558;SDS011;15002;52.028;5.670;2023-03-14T08:47:43;6.22;;;0.88;;
27558;SDS011;15002;52.028;5.670;2023-03-14T08:50:09;8.77;;;1.52;;
27558;SDS011;15002;52.028;5.670;2023-03-14T08:52:36;2.45;;;0.57;;
27558;SDS011;15002;52.028;5.670;2023-03-14T08:55:03;3.67;;;0.88;;
27558;SDS011;15002;52.028;5.670;2023-03-14T08:57:29;5.15;;;0.40;;
27558;SDS011;15002;52.028;5.670;2023-03-14T08:59:55;3.28;;;0.70;;
27558;SDS011;15002;52.028;5.670;2023-03-14T09:02:22;2.90;;;0.32;;
27558;SDS011;15002;52.028;5.670;2023-03-14T09:04:49;1.55;;;0.35;;
27558;SDS011;15002;52.028;5.670;2023-03-14T09:07:16;4.13;;;0.63;;
27558;SDS011;15002;52.028;5.670;2023-03-14T09:09:41;3.35;;;0.50;;
27558;SDS011;15002;52.028;5.670;2023-03-14T09:12:07;4.25;;;0.50;;
27558;SDS011;15002;52.028;5.670;2023-03-14T09:14:33;3.92;;;0.55;;
27558;SDS011;15002;52.028;5.670;2023-03-14T09:16:58;2.88;;;0.32;;
27558;SDS011;15002;52.028;5.670;2023-03-14T09:19:24;4.80;;;0.50;;
27558;SDS011;15002;52.028;5.670;2023-03-14T09:21:50;4.00;;;0.60;;
27558;SDS011;15002;52.028;5.670;2023-03-14T09:24:16;3.28;;;0.40;;
27558;SDS011;15002;52.028;5.670;2023-03-14T09:26:42;1.63;;;0.30;;
27558;SDS011;15002;52.028;5.670;2023-03-14T09:29:07;3.50;;;0.50;;
27558;SDS011;15002;52.028;5.670;2023-03-14T09:31:33;2.85;;;0.50;;
27558;SDS011;15002;52.028;5.670;2023-03-14T09:33:59;5.78;;;0.40;;
27558;SDS011;15002;52.028;5.670;2023-03-14T09:36:24;5.45;;;1.13;;
27558;SDS011;15002;52.028;5.670;2023-03-14T09:38:50;3.08;;;0.60;;
27558;SDS011;15002;52.028;5.670;2023-03-14T09:41:17;5.65;;;1.38;;
27558;SDS011;15002;52.028;5.670;2023-03-14T09:46:35;6.93;;;0.77;;
27558;SDS011;15002;52.028;5.670;2023-03-14T09:49:03;7.60;;;1.48;;
27558;SDS011;15002;52.028;5.670;2023-03-14T09:51:36;5.22;;;1.08;;
27558;SDS011;15002;52.028;5.670;2023-03-14T09:54:02;6.82;;;1.40;;
27558;SDS011;15002;52.028;5.670;2023-03-14T09:56:31;5.97;;;1.05;;
27558;SDS011;15002;52.028;5.670;2023-03-14T09:58:59;5.38;;;1.00;;
27558;SDS011;15002;52.028;5.670;2023-03-14T10:01:29;10.07;;;1.53;;
27558;SDS011;15002;52.028;5.670;2023-03-14T10:03:57;11.07;;;1.90;;
27558;SDS011;15002;52.028;5.670;2023-03-14T10:06:27;9.23;;;1.10;;
27558;SDS011;15002;52.028;5.670;2023-03-14T10:08:55;7.03;;;1.42;;
27558;SDS011;15002;52.028;5.670;2023-03-14T10:11:24;5.07;;;1.02;;
27558;SDS011;15002;52.028;5.670;2023-03-14T10:14:09;9.43;;;1.45;;
27558;SDS011;15002;52.028;5.670;2023-03-14T10:16:44;9.50;;;1.77;;
27558;SDS011;15002;52.028;5.670;2023-03-14T10:19:15;13.15;;;1.77;;
27558;SDS011;15002;52.028;5.670;2023-03-14T10:21:42;11.30;;;1.70;;
27558;SDS011;15002;52.028;5.670;2023-03-14T10:24:15;10.77;;;1.60;;
27558;SDS011;15002;52.028;5.670;2023-03-14T10:26:53;13.38;;;1.42;;
27558;SDS011;15002;52.028;5.670;2023-03-14T10:29:20;10.98;;;1.95;;
27558;SDS011;15002;52.028;5.670;2023-03-14T10:31:54;12.18;;;2.17;;
27558;SDS011;15002;52.028;5.670;2023-03-14T10:34:25;17.10;;;2.17;;
27558;SDS011;15002;52.028;5.670;2023-03-14T10:36:59;13.98;;;2.63;;
27558;SDS011;15002;52.028;5.670;2023-03-14T10:42:15;13.90;;;1.88;;
27558;SDS011;15002;52.028;5.670;2023-03-14T10:44:41;9.27;;;1.75;;
27558;SDS011;15002;52.028;5.670;2023-03-14T10:47:12;11.98;;;1.67;;
27558;SDS011;15002;52.028;5.670;2023-03-14T10:49:46;12.10;;;1.60;;
27558;SDS011;15002;52.028;5.670;2023-03-14T10:54:47;9.55;;;1.38;;
27558;SDS011;15002;52.028;5.670;2023-03-14T10:57:14;12.02;;;1.60;;
27558;SDS011;15002;52.028;5.670;2023-03-14T10:59:41;14.85;;;1.85;;
27558;SDS011;15002;52.028;5.670;2023-03-14T11:05:09;15.05;;;2.63;;
27558;SDS011;15002;52.028;5.670;2023-03-14T11:07:39;8.20;;;1.52;;
27558;SDS011;15002;52.028;5.670;2023-03-14T11:15:36;17.27;;;2.67;;
27558;SDS011;15002;52.028;5.670;2023-03-14T11:21:05;19.75;;;2.63;;
27558;SDS011;15002;52.028;5.670;2023-03-14T11:24:00;18.55;;;2.53;;
27558;SDS011;15002;52.028;5.670;2023-03-14T11:29:26;14.85;;;2.25;;
27558;SDS011;15002;52.028;5.670;2023-03-14T11:32:13;21.15;;;3.03;;
27558;SDS011;15002;52.028;5.670;2023-03-14T11:40:14;15.23;;;2.90;;
27558;SDS011;15002;52.028;5.670;2023-03-14T11:42:43;18.73;;;2.20;;
27558;SDS011;15002;52.028;5.670;2023-03-14T11:45:22;19.73;;;2.45;;
27558;SDS011;15002;52.028;5.670;2023-03-14T11:48:05;11.65;;;1.88;;
27558;SDS011;15002;52.028;5.670;2023-03-14T11:50:38;16.52;;;1.70;;
27558;SDS011;15002;52.028;5.670;2023-03-14T11:55:44;17.75;;;7.90;;
27558;SDS011;15002;52.028;5.670;2023-03-14T12:00:45;12.23;;;2.05;;
27558;SDS011;15002;52.028;5.670;2023-03-14T12:06:16;12.20;;;1.52;;
27558;SDS011;15002;52.028;5.670;2023-03-14T12:08:55;10.32;;;1.92;;
27558;SDS011;15002;52.028;5.670;2023-03-14T12:13:55;9.38;;;1.30;;
27558;SDS011;15002;52.028;5.670;2023-03-14T12:18:49;13.25;;;1.27;;
27558;SDS011;15002;52.028;5.670;2023-03-14T12:21:17;13.02;;;2.00;;
27558;SDS011;15002;52.028;5.670;2023-03-14T12:36:47;6.00;;;1.10;;
27558;SDS011;15002;52.028;5.670;2023-03-14T12:42:43;13.90;;;1.83;;
27558;SDS011;15002;52.028;5.670;2023-03-14T12:45:37;7.50;;;1.30;;
27558;SDS011;15002;52.028;5.670;2023-03-14T12:50:43;11.68;;;1.13;;
27558;SDS011;15002;52.028;5.670;2023-03-14T12:56:02;5.18;;;0.90;;
27558;SDS011;15002;52.028;5.670;2023-03-14T13:01:27;8.02;;;1.27;;
27558;SDS011;15002;52.028;5.670;2023-03-14T13:03:56;9.60;;;1.38;;
27558;SDS011;15002;52.028;5.670;2023-03-14T13:12:11;8.00;;;1.88;;
27558;SDS011;15002;52.028;5.670;2023-03-14T13:14:43;5.28;;;2.00;;
27558;SDS011;15002;52.028;5.670;2023-03-14T13:17:14;9.73;;;1.20;;
27558;SDS011;15002;52.028;5.670;2023-03-14T13:19:44;5.50;;;0.85;;
27558;SDS011;15002;52.028;5.670;2023-03-14T13:22:37;5.60;;;1.08;;
27558;SDS011;15002;52.028;5.670;2023-03-14T13:25:05;5.32;;;1.05;;
27558;SDS011;15002;52.028;5.670;2023-03-14T13:27:34;7.97;;;1.15;;
27558;SDS011;15002;52.028;5.670;2023-03-14T13:30:14;11.23;;;1.90;;
27558;SDS011;15002;52.028;5.670;2023-03-14T13:32:49;6.95;;;1.10;;
27558;SDS011;15002;52.028;5.670;2023-03-14T13:35:17;8.75;;;1.40;;
27558;SDS011;15002;52.028;5.670;2023-03-14T13:37:51;5.15;;;1.20;;
27558;SDS011;15002;52.028;5.670;2023-03-14T13:40:20;4.22;;;0.98;;
27558;SDS011;15002;52.028;5.670;2023-03-14T13:42:58;4.72;;;0.90;;
27558;SDS011;15002;52.028;5.670;2023-03-14T13:45:26;5.13;;;1.00;;
27558;SDS011;15002;52.028;5.670;2023-03-14T13:47:52;5.72;;;0.90;;
27558;SDS011;15002;52.028;5.670;2023-03-14T13:50:17;6.63;;;1.20;;
27558;SDS011;15002;52.028;5.670;2023-03-14T13:52:44;4.40;;;0.95;;
27558;SDS011;15002;52.028;5.670;2023-03-14T13:55:16;10.07;;;1.13;;
27558;SDS011;15002;52.028;5.670;2023-03-14T13:57:49;4.03;;;0.90;;
27558;SDS011;15002;52.028;5.670;2023-03-14T14:02:54;4.32;;;0.98;;
27558;SDS011;15002;52.028;5.670;2023-03-14T14:05:22;8.68;;;1.55;;
27558;SDS011;15002;52.028;5.670;2023-03-14T14:07:51;3.60;;;1.05;;
27558;SDS011;15002;52.028;5.670;2023-03-14T14:10:17;5.85;;;0.90;;
27558;SDS011;15002;52.028;5.670;2023-03-14T14:12:46;5.45;;;1.05;;
27558;SDS011;15002;52.028;5.670;2023-03-14T14:17:49;7.22;;;1.30;;
27558;SDS011;15002;52.028;5.670;2023-03-14T14:20:32;8.65;;;1.70;;
27558;SDS011;15002;52.028;5.670;2023-03-14T14:25:29;9.30;;;1.08;;
27558;SDS011;15002;52.028;5.670;2023-03-14T14:27:55;10.70;;;1.08;;
27558;SDS011;15002;52.028;5.670;2023-03-14T14:32:52;4.63;;;0.80;;
27558;SDS011;15002;52.028;5.670;2023-03-14T14:35:35;4.47;;;1.08;;
27558;SDS011;15002;52.028;5.670;2023-03-14T14:38:02;3.33;;;1.17;;
27558;SDS011;15002;52.028;5.670;2023-03-14T14:40:42;6.13;;;1.13;;
27558;SDS011;15002;52.028;5.670;2023-03-14T14:43:17;4.30;;;0.90;;
27558;SDS011;15002;52.028;5.670;2023-03-14T14:45:47;6.65;;;1.02;;
27558;SDS011;15002;52.028;5.670;2023-03-14T14:48:17;4.65;;;0.65;;
27558;SDS011;15002;52.028;5.670;2023-03-14T14:50:57;5.57;;;1.23;;
27558;SDS011;15002;52.028;5.670;2023-03-14T14:53:40;4.30;;;0.82;;
27558;SDS011;15002;52.028;5.670;2023-03-14T14:56:17;8.05;;;0.90;;
27558;SDS011;15002;52.028;5.670;2023-03-14T14:58:47;4.10;;;0.90;;
27558;SDS011;15002;52.028;5.670;2023-03-14T15:01:14;4.25;;;0.90;;
27558;SDS011;15002;52.028;5.670;2023-03-14T15:03:43;4.05;;;1.05;;
27558;SDS011;15002;52.028;5.670;2023-03-14T15:06:11;5.68;;;1.30;;
27558;SDS011;15002;52.028;5.670;2023-03-14T15:08:38;5.38;;;1.50;;
27558;SDS011;15002;52.028;5.670;2023-03-14T15:11:04;6.38;;;1.52;;
27558;SDS011;15002;52.028;5.670;2023-03-14T15:13:30;5.72;;;1.23;;
27558;SDS011;15002;52.028;5.670;2023-03-14T15:15:56;8.13;;;1.38;;
27558;SDS011;15002;52.028;5.670;2023-03-14T15:18:23;9.38;;;1.25;;
27558;SDS011;15002;52.028;5.670;2023-03-14T15:20:50;7.10;;;1.13;;
27558;SDS011;15002;52.028;5.670;2023-03-14T15:23:17;7.20;;;1.13;;
27558;SDS011;15002;52.028;5.670;2023-03-14T15:25:44;7.63;;;1.23;;
27558;SDS011;15002;52.028;5.670;2023-03-14T15:30:52;5.22;;;0.93;;
27558;SDS011;15002;52.028;5.670;2023-03-14T15:33:19;6.30;;;1.10;;
27558;SDS011;15002;52.028;5.670;2023-03-14T15:35:46;4.65;;;1.08;;
27558;SDS011;15002;52.028;5.670;2023-03-14T15:38:13;7.13;;;1.30;;
27558;SDS011;15002;52.028;5.670;2023-03-14T15:40:41;2.47;;;0.88;;
27558;SDS011;15002;52.028;5.670;2023-03-14T15:43:07;9.55;;;1.23;;
27558;SDS011;15002;52.028;5.670;2023-03-14T15:45:32;9.80;;;1.05;;
27558;SDS011;15002;52.028;5.670;2023-03-14T15:47:58;2.75;;;0.77;;
27558;SDS011;15002;52.028;5.670;2023-03-14T15:50:24;4.10;;;0.90;;
27558;SDS011;15002;52.028;5.670;2023-03-14T15:52:50;8.63;;;1.42;;
27558;SDS011;15002;52.028;5.670;2023-03-14T15:55:16;8.35;;;1.20;;
27558;SDS011;15002;52.028;5.670;2023-03-14T15:57:45;8.13;;;1.10;;
27558;SDS011;15002;52.028;5.670;2023-03-14T16:00:11;3.72;;;0.93;;
27558;SDS011;15002;52.028;5.670;2023-03-14T16:02:42;6.20;;;1.15;;
27558;SDS011;15002;52.028;5.670;2023-03-14T16:05:10;5.57;;;1.35;;
27558;SDS011;15002;52.028;5.670;2023-03-14T16:07:37;5.00;;;1.80;;
27558;SDS011;15002;52.028;5.670;2023-03-14T16:10:02;7.13;;;1.50;;
27558;SDS011;15002;52.028;5.670;2023-03-14T16:12:29;4.53;;;1.13;;
27558;SDS011;15002;52.028;5.670;2023-03-14T16:14:55;6.93;;;1.23;;
27558;SDS011;15002;52.028;5.670;2023-03-14T16:17:21;4.10;;;1.27;;
27558;SDS011;15002;52.028;5.670;2023-03-14T16:19:47;8.05;;;1.38;;
27558;SDS011;15002;52.028;5.670;2023-03-14T16:22:12;10.32;;;1.83;;
27558;SDS011;15002;52.028;5.670;2023-03-14T16:24:38;4.72;;;1.48;;
27558;SDS011;15002;52.028;5.670;2023-03-14T16:27:04;4.57;;;1.20;;
27558;SDS011;15002;52.028;5.670;2023-03-14T16:29:30;5.00;;;1.17;;